To NAV CANADA Home Page Login to a new session Search on AWWS site Feedback and Comments Disclaimer Vers la page française équivalente Tips FAQ What's new on the site To the Forecasts and Observations / NOTAM section To "File a Flight Plan" website Publications and other links Update of the User's profile FIC Telephone Numbers My Weather Data Folder Route Weather Data Regional Weather Data Local Weather Data To the Forecasts and Observations / NOTAM section
Request Generated 09/01/2015 at 20:14:31 UTC . Weather information available at that time is displayed.

METAR/TAF

VANCOUVER/VANCOUVER INTL/BC    

METAR CYVR 012000Z 10006KT 15SM SCT012 SCT033 BKN052 OVC070 15/11
A2981 RMK SC3SC1SC3AC1 SLP093 DENSITY ALT 100FT=
SPECI CYVR 011944Z 14005KT 15SM FEW004 SCT012 BKN037 OVC066 15/13
A2981 RMK SF1SC2SC4AC1 VIS N 10 SLP096 DENSITY ALT 100FT=
SPECI CYVR 011916Z 18007KT 10SM -RA FEW004 BKN011 OVC031 15/13 A2983
RMK SF2SC3SC3 SLP101=
METAR CYVR 011900Z 18009KT 10SM -RA FEW004 SCT011 OVC033 15/13 A2983
RMK SF2SC2SC4 SLP102 DENSITY ALT 100FT=
SPECI CYVR 011852Z 17008KT 10SM -RA FEW007 SCT013 BKN057 OVC150 15/13
A2983 RMK SF1SC2SC4AS1 PRESRR SLP101 DENSITY ALT 100FT=
METAR CYVR 011800Z 13005KT 15SM FEW007 SCT017 OVC064 16/13 A2981 RMK
SF1SC2SC5 SLP096 DENSITY ALT 200FT=

TAF AMD CYVR 011925Z 0119/0224 16008KT P6SM SCT030 BKN060 TEMPO
0119/0121 P6SM -SHRA BKN012 OVC030
BECMG 0119/0121 18012G22KT
FM012100 17012G22KT P6SM SCT040 BKN120 TEMPO 0121/0202 6SM -SHRA
BR BKN040
FM020200 18010G20KT 6SM -SHRA BR SCT020 OVC040
FM020800 VRB03KT P6SM BKN040
FM021800 17012G22KT 6SM -SHRA BR BKN030 OVC060
RMK NXT FCST BY 012100Z=
Your time UTC time
Weather data provided by Environment Canada and NAV CANADA